D/T METAR WX W/DIR W/SPE G/SPE TEMP DEWP
22/01/20 08:20 EGPA 220820Z 26012KT 3500 1500NW -DZ BR BKN004 BKN020 09/09 Q1032 -DZ BR W (260°) 13.8mph 9°C 9°C
22/01/20 07:50 EGPA 220750Z 27010KT 4000 -DZ BR SCT004 BKN020 09/09 Q1032 -DZ BR W (270°) 11.5mph 9°C 9°C
22/01/20 07:20 EGPA 220720Z 26009KT 4000 -DZ BR BKN006 09/08 Q1032 -DZ BR W (260°) 10.4mph 9°C 8°C
22/01/20 06:50 EGPA 220650Z 27008KT 4000 -DZ BR BKN003 09/08 Q1032 -DZ BR W (270°) 9.2mph 9°C 8°C
22/01/20 06:20 EGPA 220620Z 27008KT 3000 -DZ BR BKN003 09/08 Q1032 -DZ BR W (270°) 9.2mph 9°C 8°C
22/01/20 05:50 EGPA 220550Z AUTO 27007KT 8000 OVC002/// 09/08 Q1032 W (270°) 8.1mph 9°C 8°C
22/01/20 05:20 EGPA 220520Z AUTO 28007KT 6000 BKN002/// OVC006/// 08/08 Q1032 W (280°) 8.1mph 8°C 8°C
22/01/20 04:50 EGPA 220450Z AUTO VRB01KT 4800 BR OVC003/// 07/07 Q1032 BR N (0°) 1.2mph 7°C 7°C
22/01/20 04:20 EGPA 220420Z AUTO 21001KT 3700 BR BKN003/// OVC017/// 07/07 Q1032 REDZ BR SSW (210°) 1.2mph 7°C 7°C
22/01/20 03:50 EGPA 220350Z AUTO 00000KT 2400 -DZ BKN002/// OVC017/// 07/07 Q1032 -DZ N (0°) 7°C 7°C
22/01/20 03:20 EGPA 220320Z AUTO 19001KT 2100 -DZ FEW001/// OVC005/// 07/07 Q1032 -DZ S (190°) 1.2mph 7°C 7°C
22/01/20 02:50 EGPA 220250Z AUTO 18002KT 1400 BR OVC001/// 07/07 Q1032 BR S (180°) 2.3mph 7°C 7°C
22/01/20 02:20 EGPA 220220Z AUTO 21001KT 3300 BR OVC001/// 07/07 Q1032 BR SSW (210°) 1.2mph 7°C 7°C
22/01/20 01:50 EGPA 220150Z AUTO 22003KT 2600 -RA OVC001/// 07/07 Q1032 -RA SW (220°) 3.5mph 7°C 7°C
22/01/20 01:20 EGPA 220120Z AUTO 21003KT 1300 BR SCT001/// BKN006/// BKN009/// 07/07 Q1033 BR SSW (210°) 3.5mph 7°C 7°C
22/01/20 00:50 EGPA 220050Z AUTO 21003KT 9999 SCT002/// BKN011/// BKN029/// 07/07 Q1033 SSW (210°) 3.5mph 7°C 7°C
21/01/20 23:50 EGPA 212350Z AUTO 23003KT 9999 FEW002/// BKN017/// BKN022/// 07/07 Q1033 SW (230°) 3.5mph 7°C 7°C
21/01/20 23:20 EGPA 212320Z AUTO 23004KT 9999 BKN001/// OVC017/// 07/07 Q1033 SW (230°) 4.6mph 7°C 7°C
21/01/20 22:50 EGPA 212250Z AUTO 25004KT 9999 SCT003/// BKN007/// BKN010/// 07/06 Q1033 WSW (250°) 4.6mph 7°C 6°C
21/01/20 22:20 EGPA 212220Z AUTO 26003KT 9999 BKN003/// OVC026/// 07/06 Q1033 W (260°) 3.5mph 7°C 6°C
21/01/20 21:50 EGPA 212150Z AUTO 27001KT 4600 BR SCT003/// BKN008/// BKN012/// 06/06 Q1033 BR W (270°) 1.2mph 6°C 6°C
21/01/20 21:20 EGPA 212120Z AUTO 29002KT 9999 BKN007/// BKN024/// 06/05 Q1034 WNW (290°) 2.3mph 6°C 5°C
21/01/20 20:20 EGPA 212020Z VRB02KT 9999 VCSH SCT006 SCT013 OVC025 06/06 Q1034 RERA REDZ VCSH N (0°) 2.3mph 6°C 6°C
21/01/20 19:50 EGPA 211950Z 27005KT 9999 4000NW RADZ BR SCT003 BKN007 OVC015 06/06 Q1033 RA DZ BR W (270°) 5.8mph 6°C 6°C
21/01/20 18:50 EGPA 211850Z 27003KT 9999 FEW025 05/04 Q1033 W (270°) 3.5mph 5°C 4°C
21/01/20 18:20 EGPA 211820Z 28004KT 9999 FEW025 05/04 Q1033 W (280°) 4.6mph 5°C 4°C
21/01/20 17:50 EGPA 211750Z 27007KT 9999 VCSH FEW009 SCT020 BKN025 05/04 Q1033 VCSH W (270°) 8.1mph 5°C 4°C
21/01/20 17:20 EGPA 211720Z 29007KT 9999 VCSH SCT006 BKN012 BKN025 06/05 Q1033 VCSH WNW (290°) 8.1mph 6°C 5°C
21/01/20 16:50 EGPA 211650Z 31008KT 9999 VCSH SCT008 BKN012 OVC027 06/05 Q1033 RERA REDZ VCSH NW (310°) 9.2mph 6°C 5°C
21/01/20 16:20 EGPA 211620Z 30006KT 9999 4000N RADZ BR FEW015 SCT020 BKN036 06/05 Q1033 RA DZ BR WNW (300°) 6.9mph 6°C 5°C
21/01/20 15:50 EGPA 211550Z 28008KT 9999 VCSH FEW015 SCT020 BKN038 06/05 Q1033 VCSH W (280°) 9.2mph 6°C 5°C
21/01/20 15:20 EGPA 211520Z 29008KT 9999 VCSH SCT015 SCT020 BKN026 07/05 Q1034 RERA REDZ VCSH WNW (290°) 9.2mph 7°C 5°C
21/01/20 14:50 EGPA 211450Z 28005KT 9999 VCSH FEW015 SCT037 07/05 Q1033 VCSH W (280°) 5.8mph 7°C 5°C
21/01/20 14:20 EGPA 211420Z 28012KT 9999 FEW018 SCT032 07/05 Q1034 W (280°) 13.8mph 7°C 5°C
21/01/20 13:50 EGPA 211350Z 25009KT 9999 VCSH FEW018 SCT032 07/05 Q1033 VCSH WSW (250°) 10.4mph 7°C 5°C
21/01/20 13:20 EGPA 211320Z 25009KT 9999 VCSH FEW018 SCT034 07/05 Q1034 VCSH WSW (250°) 10.4mph 7°C 5°C
21/01/20 12:50 EGPA 211250Z 28011KT 9999 VCSH FEW010 SCT020 07/05 Q1034 VCSH W (280°) 12.7mph 7°C 5°C
21/01/20 12:20 EGPA 211220Z 26009KT 9999 8000N VCSH FEW004 SCT020 07/05 Q1034 VCSH W (260°) 10.4mph 7°C 5°C
21/01/20 11:50 EGPA 211150Z 24009KT 9999 FEW012 07/05 Q1034 WSW (240°) 10.4mph 7°C 5°C
21/01/20 11:20 EGPA 211120Z 25010KT 9999 FEW012 SCT032 07/05 Q1034 WSW (250°) 11.5mph 7°C 5°C
21/01/20 10:50 EGPA 211050Z 28006KT 9999 FEW012 SCT032 06/05 Q1035 W (280°) 6.9mph 6°C 5°C
21/01/20 10:20 EGPA 211020Z 23007KT 9999 FEW010 06/05 Q1034 SW (230°) 8.1mph 6°C 5°C
21/01/20 09:50 EGPA 210950Z 23006KT 9999 FEW010 06/05 Q1034 SW (230°) 6.9mph 6°C 5°C
21/01/20 09:20 EGPA 210920Z 27005KT 9999 FEW015 BKN033 05/04 Q1034 W (270°) 5.8mph 5°C 4°C
21/01/20 08:20 EGPA 210820Z 25003KT 9999 FEW011 BKN035 05/04 Q1034 WSW (250°) 3.5mph 5°C 4°C
21/01/20 07:50 EGPA 210750Z 21007KT 9999 FEW031 04/03 Q1034 SSW (210°) 8.1mph 4°C 3°C
21/01/20 07:20 EGPA 210720Z 26004KT 9999 FEW031 03/03 Q1033 W (260°) 4.6mph 3°C 3°C
21/01/20 06:50 EGPA 210650Z 27005KT 9999 FEW012 SCT039 04/03 Q1033 W (270°) 5.8mph 4°C 3°C